createdAt,value
2022-08-23T00:03:12.203Z,1.20
2022-08-23T00:06:38.011Z,1.33
2022-08-23T00:10:01.553Z,1.13
2022-08-23T00:13:25.512Z,1.10
2022-08-23T00:17:12.924Z,1.00
2022-08-23T00:20:56.582Z,1.00
2022-08-23T00:24:22.616Z,1.10
2022-08-23T00:27:46.262Z,0.97
2022-08-23T00:31:09.726Z,1.13
2022-08-23T00:34:33.294Z,1.10
2022-08-23T00:38:33.198Z,1.10
2022-08-23T00:41:45.061Z,1.07
2022-08-23T00:45:29.008Z,1.00
2022-08-23T00:48:53.974Z,1.03
2022-08-23T00:52:29.561Z,1.10
2022-08-23T00:56:01.067Z,1.00
2022-08-23T00:59:27.193Z,1.00
2022-08-23T01:02:53.390Z,1.10
2022-08-23T01:06:26.078Z,1.13
2022-08-23T01:09:56.552Z,0.80
2022-08-23T01:13:26.480Z,0.97
2022-08-23T01:16:58.375Z,1.10
2022-08-23T01:20:27.010Z,1.10
2022-08-23T01:23:57.501Z,1.07
2022-08-23T01:27:21.951Z,0.97
2022-08-23T01:30:48.876Z,1.47
2022-08-23T01:34:17.514Z,1.17
2022-08-23T01:37:41.704Z,1.03
2022-08-23T01:41:07.284Z,1.20
2022-08-23T01:44:31.415Z,1.00
2022-08-23T01:47:54.958Z,0.97
2022-08-23T01:51:22.189Z,1.07
2022-08-23T01:54:46.495Z,1.03
2022-08-23T01:58:12.073Z,1.20
2022-08-23T02:01:36.457Z,1.00
2022-08-23T02:04:59.912Z,1.17
2022-08-23T02:08:41.659Z,0.90
2022-08-23T02:12:05.963Z,1.10
2022-08-23T02:15:31.992Z,1.10
2022-08-23T02:18:56.452Z,1.23
2022-08-23T02:22:20.083Z,0.90
2022-08-23T02:25:44.341Z,1.10
2022-08-23T02:29:09.471Z,0.90
2022-08-23T02:32:34.453Z,1.10
2022-08-23T02:35:58.296Z,1.20
2022-08-23T02:39:22.274Z,0.90
2022-08-23T02:42:46.155Z,1.20
2022-08-23T02:46:10.287Z,1.17
2022-08-23T02:49:35.785Z,1.13
2022-08-23T02:53:00.670Z,1.00
2022-08-23T02:56:25.178Z,1.00
2022-08-23T02:59:48.730Z,1.23
2022-08-23T03:03:12.432Z,1.20
2022-08-23T03:06:38.587Z,1.00
2022-08-23T03:10:02.297Z,1.20
2022-08-23T03:13:28.557Z,1.00
2022-08-23T03:16:53.196Z,1.00
2022-08-23T03:20:21.679Z,1.10
2022-08-23T03:23:47.945Z,1.07
2022-08-23T03:27:12.198Z,1.20
2022-08-23T03:30:37.730Z,1.00
2022-08-23T03:34:02.942Z,1.03
2022-08-23T03:37:26.604Z,1.10
2022-08-23T03:40:52.507Z,1.20
2022-08-23T03:44:16.514Z,0.93
2022-08-23T03:47:41.577Z,1.40
2022-08-23T03:51:05.476Z,1.10
2022-08-23T03:54:30.028Z,1.30
2022-08-23T03:57:54.910Z,1.00
2022-08-23T04:01:19.016Z,1.20
2022-08-23T04:04:42.831Z,1.20
2022-08-23T04:08:34.111Z,1.20
2022-08-23T04:11:59.965Z,1.20
2022-08-23T04:15:25.736Z,1.43
2022-08-23T04:18:49.850Z,1.30
2022-08-23T04:22:19.774Z,1.20
2022-08-23T04:25:45.580Z,1.10
2022-08-23T04:29:09.428Z,1.30
2022-08-23T04:32:35.975Z,1.27
2022-08-23T04:36:03.153Z,1.20
2022-08-23T04:39:26.883Z,1.40
2022-08-23T04:42:50.255Z,1.30
2022-08-23T04:46:16.417Z,1.30
2022-08-23T04:49:43.306Z,1.20
2022-08-23T04:53:07.934Z,1.17
2022-08-23T04:56:38.842Z,1.23
2022-08-23T05:00:04.716Z,1.20
2022-08-23T05:03:29.871Z,1.20
2022-08-23T05:06:56.318Z,1.20
2022-08-23T05:10:20.686Z,1.07
2022-08-23T05:13:48.875Z,1.20
2022-08-23T05:17:12.442Z,1.20
2022-08-23T05:20:37.266Z,1.40
2022-08-23T05:24:03.755Z,1.20
2022-08-23T05:27:27.782Z,1.40
2022-08-23T05:31:02.290Z,1.10
2022-08-23T05:34:29.583Z,1.23
2022-08-23T05:37:54.837Z,1.30
2022-08-23T05:41:21.089Z,1.17
2022-08-23T05:44:46.489Z,1.17
2022-08-23T05:48:11.043Z,1.10
2022-08-23T05:51:43.199Z,1.53
2022-08-23T05:55:10.285Z,1.20
2022-08-23T05:58:48.617Z,1.50
2022-08-23T06:02:12.209Z,1.80
2022-08-23T06:05:41.654Z,1.30
2022-08-23T06:09:09.922Z,1.33
2022-08-23T06:12:34.822Z,1.20
2022-08-23T06:16:00.409Z,1.80
2022-08-23T06:19:38.292Z,1.83
2022-08-23T06:23:28.002Z,1.13
2022-08-23T06:26:51.866Z,1.07
2022-08-23T06:30:15.645Z,1.10
2022-08-23T06:33:43.835Z,1.07
2022-08-23T06:37:23.470Z,1.03
2022-08-23T06:41:04.861Z,1.10
2022-08-23T06:44:38.513Z,1.60
2022-08-23T06:48:24.558Z,1.20
2022-08-23T06:51:52.629Z,1.20
2022-08-23T06:55:26.024Z,1.40
2022-08-23T06:59:09.107Z,1.23
2022-08-23T07:02:55.688Z,1.30
2022-08-23T07:06:38.731Z,1.30
2022-08-23T07:10:03.553Z,1.37
2022-08-23T07:13:28.453Z,1.50
2022-08-23T07:16:56.106Z,1.60
2022-08-23T07:20:20.081Z,1.37
2022-08-23T07:23:46.593Z,1.80
2022-08-23T07:27:12.523Z,1.40
2022-08-23T07:30:50.478Z,1.57
2022-08-23T07:34:15.471Z,1.50
2022-08-23T07:37:40.076Z,1.57
2022-08-23T07:41:05.072Z,1.70
2022-08-23T07:44:30.192Z,1.70
2022-08-23T07:47:54.876Z,1.43
2022-08-23T07:51:21.249Z,1.63
2022-08-23T07:54:48.450Z,1.60
2022-08-23T07:58:38.830Z,1.20
2022-08-23T08:02:27.379Z,1.47
2022-08-23T08:05:51.166Z,1.10
2022-08-23T08:09:16.475Z,1.40
2022-08-23T08:12:40.059Z,1.33
2022-08-23T08:16:25.222Z,1.03
2022-08-23T08:19:50.483Z,1.10
2022-08-23T08:23:37.172Z,1.37
2022-08-23T08:27:13.176Z,1.00
2022-08-23T08:30:36.731Z,1.30
2022-08-23T08:34:01.223Z,1.40
2022-08-23T08:37:27.333Z,1.30
2022-08-23T08:41:02.923Z,1.37
2022-08-23T08:44:41.224Z,1.30
2022-08-23T08:48:13.678Z,1.43
2022-08-23T08:51:51.905Z,1.30
2022-08-23T08:55:26.746Z,1.40
2022-08-23T08:58:55.965Z,1.17
2022-08-23T09:02:32.835Z,1.27
2022-08-23T09:06:19.224Z,1.50
2022-08-23T09:10:16.976Z,1.27
2022-08-23T09:14:17.596Z,1.33
2022-08-23T09:17:49.691Z,1.40
2022-08-23T09:21:15.697Z,1.20
2022-08-23T09:24:39.963Z,1.27
2022-08-23T09:28:09.990Z,1.00
2022-08-23T09:31:45.157Z,1.07
2022-08-23T09:35:16.003Z,1.20
2022-08-23T09:38:54.770Z,1.20
2022-08-23T09:42:35.935Z,1.10
2022-08-23T09:46:04.401Z,1.00
2022-08-23T09:49:33.325Z,1.07
2022-08-23T09:53:09.186Z,0.90
2022-08-23T09:56:39.864Z,0.90
2022-08-23T10:00:27.586Z,1.07
2022-08-23T10:04:12.632Z,0.97
2022-08-23T10:07:42.654Z,1.00
2022-08-23T10:11:20.172Z,1.00
2022-08-23T10:14:44.631Z,1.00
2022-08-23T10:18:24.780Z,1.00
2022-08-23T10:21:58.821Z,1.10
2022-08-23T10:25:36.875Z,0.87
2022-08-23T10:29:41.974Z,0.90
2022-08-23T10:33:18.613Z,0.90
2022-08-23T10:37:01.692Z,0.90
2022-08-23T10:40:34.906Z,0.90
2022-08-23T10:44:15.354Z,0.80
2022-08-23T10:47:53.438Z,1.00
2022-08-23T10:51:31.518Z,0.90
2022-08-23T10:55:06.342Z,1.10
2022-08-23T10:58:43.111Z,1.00
2022-08-23T11:02:23.872Z,0.90
2022-08-23T11:06:29.187Z,0.90
2022-08-23T11:10:16.676Z,1.00
2022-08-23T11:13:54.327Z,1.00
2022-08-23T11:17:41.563Z,1.10
2022-08-23T11:21:12.797Z,0.97
2022-08-23T11:24:59.874Z,1.10
2022-08-23T11:28:42.231Z,0.90
2022-08-23T11:32:45.418Z,1.00
2022-08-23T11:36:23.199Z,1.10
2022-08-23T11:40:17.499Z,0.97
2022-08-23T11:43:45.360Z,0.90
2022-08-23T11:47:12.254Z,1.00
2022-08-23T11:51:02.129Z,0.83
2022-08-23T11:54:55.327Z,0.90
2022-08-23T11:58:29.680Z,0.93
2022-08-23T12:01:53.455Z,1.00
2022-08-23T12:06:03.551Z,0.90
2022-08-23T12:09:57.146Z,1.00
2022-08-23T12:13:34.193Z,0.87
2022-08-23T12:16:59.047Z,1.00
2022-08-23T12:20:32.347Z,1.23
2022-08-23T12:24:01.582Z,0.90
2022-08-23T12:27:35.334Z,0.90
2022-08-23T12:31:13.519Z,1.00
2022-08-23T12:34:54.515Z,1.10
2022-08-23T12:38:33.707Z,1.03
2022-08-23T12:42:07.947Z,1.10
2022-08-23T12:45:41.797Z,0.93
2022-08-23T12:49:08.531Z,1.20
2022-08-23T12:52:39.274Z,1.00
2022-08-23T12:56:07.889Z,1.00
2022-08-23T12:59:42.274Z,1.10
2022-08-23T13:03:15.606Z,0.87
2022-08-23T13:06:47.201Z,1.20
2022-08-23T13:10:12.422Z,1.37
2022-08-23T13:13:39.657Z,1.30
2022-08-23T13:17:31.486Z,1.10
2022-08-23T13:21:18.842Z,0.97
2022-08-23T13:24:46.434Z,1.00
2022-08-23T13:28:27.041Z,1.20
2022-08-23T13:32:02.578Z,1.10
2022-08-23T13:35:39.358Z,1.00
2022-08-23T13:39:07.892Z,1.20
2022-08-23T13:42:48.250Z,1.40
2022-08-23T13:46:22.961Z,1.20
2022-08-23T13:49:46.759Z,0.93
2022-08-23T13:53:14.752Z,1.00
2022-08-23T13:56:51.603Z,1.13
2022-08-23T14:00:19.586Z,1.00
2022-08-23T14:03:43.440Z,1.20
2022-08-23T14:07:07.924Z,1.00
2022-08-23T14:10:32.861Z,1.00
2022-08-23T14:13:56.418Z,1.17
2022-08-23T14:17:20.760Z,1.20
2022-08-23T14:20:46.066Z,1.20
2022-08-23T14:24:10.504Z,1.33
2022-08-23T14:27:35.876Z,1.00
2022-08-23T14:30:59.684Z,1.20
2022-08-23T14:34:23.626Z,1.40
2022-08-23T14:38:15.157Z,1.10
2022-08-23T14:41:33.123Z,1.10
2022-08-23T14:44:58.042Z,1.10
2022-08-23T14:48:23.131Z,1.10
2022-08-23T14:51:49.737Z,1.13
2022-08-23T14:55:14.384Z,1.10
2022-08-23T14:58:40.193Z,1.30
2022-08-23T15:02:07.259Z,1.17
2022-08-23T15:05:31.494Z,1.10
2022-08-23T15:08:55.146Z,1.20
2022-08-23T15:16:07.214Z,1.10
2022-08-23T15:19:32.234Z,1.30
2022-08-23T15:22:56.371Z,1.43
2022-08-23T15:26:29.769Z,1.00
2022-08-23T15:29:53.396Z,1.00
2022-08-23T15:33:17.238Z,1.10
2022-08-23T15:36:43.407Z,0.90
2022-08-23T15:40:09.511Z,1.10
2022-08-23T15:43:34.766Z,1.17
2022-08-23T15:46:58.717Z,1.10
2022-08-23T15:50:30.968Z,1.10
2022-08-23T15:53:57.605Z,1.13
2022-08-23T15:57:25.716Z,1.10
2022-08-23T16:00:52.234Z,1.30
2022-08-23T16:04:15.939Z,1.17
2022-08-23T16:07:41.353Z,1.30
2022-08-23T16:11:12.115Z,1.30
2022-08-23T16:14:37.139Z,1.30
2022-08-23T16:18:00.623Z,1.20
2022-08-23T16:21:26.962Z,1.07
2022-08-23T16:24:50.514Z,1.10
2022-08-23T16:28:15.395Z,1.30
2022-08-23T16:31:39.841Z,1.47
2022-08-23T16:35:03.651Z,1.10
2022-08-23T16:38:27.691Z,1.10
2022-08-23T16:41:51.522Z,1.37
2022-08-23T16:45:16.444Z,1.17
2022-08-23T16:48:48.751Z,1.30
2022-08-23T16:52:12.705Z,1.33
2022-08-23T16:55:37.605Z,1.40
2022-08-23T16:59:01.149Z,1.13
2022-08-23T17:02:30.472Z,1.07
2022-08-23T17:05:54.029Z,1.20
2022-08-23T17:09:17.950Z,1.10
2022-08-23T17:12:47.330Z,1.10
2022-08-23T17:16:12.063Z,1.00
2022-08-23T17:19:37.130Z,1.10
2022-08-23T17:23:00.953Z,1.00
2022-08-23T17:26:29.410Z,1.10
2022-08-23T17:29:54.650Z,1.10
2022-08-23T17:33:18.417Z,0.93
2022-08-23T17:36:50.204Z,1.20
2022-08-23T17:40:21.448Z,1.57
2022-08-23T17:43:45.574Z,1.20
2022-08-23T17:47:15.391Z,1.20
2022-08-23T17:50:39.948Z,1.10
2022-08-23T17:54:05.629Z,1.40
2022-08-23T17:57:29.850Z,1.10
2022-08-23T18:00:56.086Z,1.20
2022-08-23T18:04:19.830Z,1.13
2022-08-23T18:07:43.775Z,1.10
2022-08-23T18:11:08.733Z,1.07
2022-08-23T18:14:32.328Z,1.17
2022-08-23T18:17:58.292Z,1.00
2022-08-23T18:21:23.456Z,1.20
2022-08-23T18:24:46.992Z,1.10
2022-08-23T18:28:12.977Z,1.10
2022-08-23T18:31:36.543Z,1.37
2022-08-23T18:35:00.078Z,1.07
2022-08-23T18:38:23.528Z,1.20
2022-08-23T18:41:47.047Z,1.37
2022-08-23T18:45:16.694Z,1.13
2022-08-23T18:48:42.696Z,1.10
2022-08-23T18:52:16.842Z,1.20
2022-08-23T18:55:41.144Z,1.13
2022-08-23T18:59:07.044Z,1.10
2022-08-23T19:02:32.552Z,1.30
2022-08-23T19:05:56.158Z,1.20
2022-08-23T19:09:19.609Z,1.30
2022-08-23T19:12:51.819Z,1.10
2022-08-23T19:16:21.596Z,1.03
2022-08-23T19:19:46.587Z,1.10
2022-08-23T19:23:10.144Z,1.20
2022-08-23T19:26:36.163Z,1.47
2022-08-23T19:29:59.743Z,1.33
2022-08-23T19:33:23.516Z,1.50
2022-08-23T19:37:00.279Z,1.60
2022-08-23T19:40:25.300Z,1.80
2022-08-23T19:43:49.494Z,2.27
2022-08-23T19:47:19.388Z,2.07
2022-08-23T19:50:43.174Z,1.70
2022-08-23T19:54:11.683Z,1.80
2022-08-23T19:57:36.764Z,1.37
2022-08-23T20:01:00.761Z,1.67
2022-08-23T20:04:26.652Z,1.40
2022-08-23T20:07:50.627Z,1.53
2022-08-23T20:11:15.762Z,1.50
2022-08-23T20:14:39.931Z,1.60
2022-08-23T20:18:04.074Z,1.60
2022-08-23T20:21:28.261Z,1.60
2022-08-23T20:24:52.726Z,1.30
2022-08-23T20:28:18.238Z,1.50
2022-08-23T20:31:51.088Z,1.50
2022-08-23T20:35:14.708Z,1.30
2022-08-23T20:38:38.537Z,1.40
2022-08-23T20:42:02.122Z,1.80
2022-08-23T20:45:27.147Z,1.87
2022-08-23T20:48:52.443Z,1.60
2022-08-23T20:52:16.616Z,1.80
2022-08-23T20:55:40.603Z,1.50
2022-08-23T20:59:04.222Z,1.23
2022-08-23T21:02:29.346Z,1.30
2022-08-23T21:06:03.086Z,1.57
2022-08-23T21:09:29.506Z,1.30
2022-08-23T21:12:53.530Z,1.40
2022-08-23T21:16:18.181Z,1.90
2022-08-23T21:19:44.155Z,1.67
2022-08-23T21:23:07.731Z,1.80
2022-08-23T21:26:32.168Z,1.60
2022-08-23T21:29:55.682Z,1.70
2022-08-23T21:33:20.805Z,1.40
2022-08-23T21:36:45.751Z,1.47
2022-08-23T21:40:11.346Z,1.50
2022-08-23T21:43:37.168Z,1.10
2022-08-23T21:47:00.727Z,1.33
2022-08-23T21:50:24.699Z,1.10
2022-08-23T21:53:53.449Z,1.20
2022-08-23T21:57:17.244Z,1.47
2022-08-23T22:00:42.147Z,1.07
2022-08-23T22:04:08.822Z,1.10
2022-08-23T22:07:34.837Z,1.20
2022-08-23T22:11:00.433Z,1.30
2022-08-23T22:14:31.275Z,1.40
2022-08-23T22:17:55.242Z,1.30
2022-08-23T22:21:18.692Z,1.60
2022-08-23T22:24:45.580Z,1.17
2022-08-23T22:28:10.455Z,1.30
2022-08-23T22:31:35.415Z,1.33
2022-08-23T22:34:59.192Z,1.37
2022-08-23T22:38:22.651Z,1.30
2022-08-23T22:41:46.068Z,1.10
2022-08-23T22:45:12.879Z,1.50
2022-08-23T22:48:36.383Z,1.27
2022-08-23T22:52:00.244Z,1.10
2022-08-23T22:55:23.736Z,1.30
2022-08-23T22:58:47.891Z,1.30
2022-08-23T23:02:16.548Z,1.23
2022-08-23T23:05:40.573Z,1.13
2022-08-23T23:09:04.795Z,1.27
2022-08-23T23:12:28.234Z,1.20
2022-08-23T23:15:52.441Z,1.40
2022-08-23T23:19:35.260Z,1.20
2022-08-23T23:22:58.748Z,1.70
2022-08-23T23:26:22.216Z,1.50
2022-08-23T23:29:45.956Z,1.30
2022-08-23T23:33:09.382Z,1.40
2022-08-23T23:36:34.874Z,1.50
2022-08-23T23:39:58.757Z,1.40
2022-08-23T23:43:22.250Z,1.50
2022-08-23T23:46:48.250Z,1.70
2022-08-23T23:50:14.874Z,1.33
2022-08-23T23:53:40.763Z,1.40
2022-08-23T23:57:05.586Z,1.30
